createdAt,value
2018-12-07T00:18:49.779Z,100173.08
2018-12-07T00:29:04.522Z,100182.97
2018-12-07T00:34:07.807Z,100178.97
2018-12-07T00:39:11.094Z,100183.98
2018-12-07T00:44:14.401Z,100169.94
2018-12-07T00:49:17.710Z,100152.84
2018-12-07T00:54:21.000Z,100145.54
2018-12-07T00:59:24.420Z,100144.43
2018-12-07T01:04:27.735Z,100143.48
2018-12-07T01:09:31.047Z,100144.83
2018-12-07T01:14:34.366Z,100145.54
2018-12-07T01:19:37.667Z,100145.94
2018-12-07T01:24:40.994Z,100152.91
2018-12-07T01:29:44.310Z,100150.22
2018-12-07T01:34:47.610Z,100137.16
2018-12-07T01:39:50.919Z,100142.53
2018-12-07T01:44:54.231Z,100134.34
2018-12-07T01:49:57.527Z,100109.95
2018-12-07T01:55:00.824Z,100111.30
2018-12-07T02:00:04.508Z,100111.66
2018-12-07T02:05:07.832Z,100097.29
2018-12-07T02:10:11.123Z,100086.55
2018-12-07T02:15:14.426Z,100067.77
2018-12-07T02:20:17.714Z,100064.33
2018-12-07T02:25:21.145Z,100069.11
2018-12-07T02:30:24.444Z,100073.36
2018-12-07T02:35:27.757Z,100064.72
2018-12-07T02:40:31.055Z,100061.68
2018-12-07T02:45:34.467Z,100050.59
2018-12-07T02:50:37.782Z,100040.44
2018-12-07T02:55:41.101Z,100030.20
2018-12-07T03:00:44.391Z,100015.21
2018-12-07T03:05:47.689Z,100018.75
2018-12-07T03:10:50.991Z,100013.64
2018-12-07T03:15:54.282Z,100017.80
2018-12-07T03:20:57.591Z,100000.49
2018-12-07T03:26:00.870Z,99993.89
2018-12-07T03:31:04.163Z,99992.67
2018-12-07T03:36:07.587Z,99988.29
2018-12-07T03:41:10.887Z,99982.92
2018-12-07T03:46:14.178Z,99978.55
2018-12-07T03:51:17.471Z,99978.67
2018-12-07T03:56:20.777Z,99976.97
2018-12-07T04:01:24.063Z,99960.16
2018-12-07T04:06:27.350Z,99954.80
2018-12-07T04:11:30.706Z,99952.96
2018-12-07T04:16:33.982Z,99945.50
2018-12-07T04:21:37.258Z,99945.50
2018-12-07T04:26:40.703Z,99927.35
2018-12-07T04:31:43.997Z,99917.47
2018-12-07T04:36:47.296Z,99912.46
2018-12-07T04:41:50.617Z,99907.50
2018-12-07T04:46:54.451Z,99913.98
2018-12-07T04:51:57.847Z,99912.38
2018-12-07T04:57:01.455Z,99906.42
2018-12-07T05:02:05.365Z,99899.95
2018-12-07T05:07:08.648Z,99898.25
2018-12-07T05:12:11.989Z,99889.59
2018-12-07T05:17:15.322Z,99887.53
2018-12-07T05:22:18.614Z,99884.84
2018-12-07T05:27:21.906Z,99882.27
2018-12-07T05:32:25.183Z,99873.02
2018-12-07T05:37:28.529Z,99879.72
2018-12-07T05:42:31.807Z,99880.21
2018-12-07T05:47:35.102Z,99891.42
2018-12-07T05:52:38.451Z,99889.73
2018-12-07T05:57:42.013Z,99879.98
2018-12-07T06:02:45.297Z,99875.60
2018-12-07T06:07:48.761Z,99870.73
2018-12-07T06:12:52.038Z,99874.00
2018-12-07T06:17:55.398Z,99874.39
2018-12-07T06:22:58.703Z,99874.49
2018-12-07T06:28:01.998Z,99870.86
2018-12-07T06:33:05.290Z,99874.89
2018-12-07T06:38:08.594Z,99869.27
2018-12-07T06:43:11.902Z,99863.05
2018-12-07T06:48:15.311Z,99863.41
2018-12-07T06:53:18.598Z,99855.01
2018-12-07T06:58:21.893Z,99855.86
2018-12-07T07:03:25.200Z,99843.08
2018-12-07T07:08:28.526Z,99846.12
2018-12-07T07:13:31.806Z,99836.86
2018-12-07T07:18:35.100Z,99837.22
2018-12-07T07:23:38.390Z,99837.00
2018-12-07T07:28:41.794Z,99837.36
2018-12-07T07:33:45.218Z,99832.97
2018-12-07T07:38:48.510Z,99836.28
2018-12-07T07:43:51.811Z,99830.56
2018-12-07T07:48:55.151Z,99835.70
2018-12-07T07:53:58.459Z,99845.30
2018-12-07T07:59:01.785Z,99844.75
2018-12-07T08:04:05.117Z,99838.95
2018-12-07T08:09:08.484Z,99836.32
2018-12-07T08:14:11.787Z,99834.41
2018-12-07T08:19:15.074Z,99833.58
2018-12-07T08:24:18.380Z,99827.72
2018-12-07T08:29:21.695Z,99816.22
2018-12-07T08:34:24.996Z,99804.86
2018-12-07T08:39:28.283Z,99801.60
2018-12-07T08:44:31.590Z,99791.38
2018-12-07T08:49:40.263Z,99783.30
2018-12-07T08:54:43.630Z,99771.95
2018-12-07T08:59:46.947Z,99770.31
2018-12-07T09:04:50.243Z,99761.52
2018-12-07T09:09:53.530Z,99755.22
2018-12-07T09:14:56.827Z,99749.86
2018-12-07T09:20:00.122Z,99743.25
2018-12-07T09:25:03.594Z,99737.32
2018-12-07T09:30:06.902Z,99732.70
2018-12-07T09:35:10.195Z,99727.73
2018-12-07T09:40:13.479Z,99711.78
2018-12-07T09:45:16.762Z,99705.93
2018-12-07T09:50:20.043Z,99695.84
2018-12-07T09:55:23.322Z,99688.84
2018-12-07T10:00:26.646Z,99676.94
2018-12-07T10:05:29.998Z,99668.88
2018-12-07T10:10:33.292Z,99668.96
2018-12-07T10:15:36.592Z,99662.59
2018-12-07T10:20:40.279Z,99643.66
2018-12-07T10:25:43.554Z,99625.98
2018-12-07T10:30:46.834Z,99615.75
2018-12-07T10:35:50.114Z,99601.70
2018-12-07T10:40:53.405Z,99585.34
2018-12-07T10:45:56.690Z,99584.38
2018-12-07T10:51:00.070Z,99578.11
2018-12-07T10:56:03.413Z,99575.11
2018-12-07T11:01:12.147Z,99575.82
2018-12-07T11:06:20.903Z,99555.28
2018-12-07T11:11:29.502Z,99552.25
2018-12-07T11:16:38.045Z,99544.06
2018-12-07T11:21:46.621Z,99530.98
2018-12-07T11:26:55.334Z,99524.34
2018-12-07T11:32:03.998Z,99523.77
2018-12-07T11:37:07.291Z,99515.59
2018-12-07T11:42:10.587Z,99507.23
2018-12-07T11:47:13.900Z,99496.16
2018-12-07T11:52:17.198Z,99480.75
2018-12-07T11:57:20.495Z,99476.52
2018-12-07T12:02:26.497Z,99460.07
2018-12-07T12:07:29.130Z,99461.20
2018-12-07T12:12:32.434Z,99456.25
2018-12-07T12:17:35.734Z,99440.02
2018-12-07T12:22:39.031Z,99430.83
2018-12-07T12:27:42.327Z,99424.45
2018-12-07T12:32:45.646Z,99420.42
2018-12-07T12:37:48.941Z,99422.51
2018-12-07T12:42:52.327Z,99416.59
2018-12-07T12:47:55.666Z,99410.02
2018-12-07T12:52:58.982Z,99399.80
2018-12-07T12:58:02.346Z,99399.16
2018-12-07T13:03:05.634Z,99385.61
2018-12-07T13:08:08.926Z,99384.48
2018-12-07T13:13:12.228Z,99365.56
2018-12-07T13:18:15.529Z,99357.19
2018-12-07T13:23:18.852Z,99331.22
2018-12-07T13:28:22.153Z,99330.72
2018-12-07T13:33:25.450Z,99313.94
2018-12-07T13:38:28.735Z,99301.95
2018-12-07T13:43:32.249Z,99292.02
2018-12-07T13:48:35.743Z,99281.23
2018-12-07T13:53:39.163Z,99279.45
2018-12-07T13:58:42.570Z,99256.05
2018-12-07T14:03:45.995Z,99253.41
2018-12-07T14:08:49.384Z,99251.38
2018-12-07T14:13:52.808Z,99248.05
2018-12-07T14:18:56.210Z,99230.05
2018-12-07T14:23:59.629Z,99218.19
2018-12-07T14:29:03.069Z,99196.38
2018-12-07T14:34:06.596Z,99193.25
2018-12-07T14:39:09.957Z,99183.70
2018-12-07T14:44:13.291Z,99178.91
2018-12-07T14:49:16.721Z,99181.40
2018-12-07T14:54:20.300Z,99167.49
2018-12-07T14:59:23.703Z,99159.06
2018-12-07T15:04:27.006Z,99152.23
2018-12-07T15:09:30.689Z,99138.11
2018-12-07T15:14:34.171Z,99121.62
2018-12-07T15:19:37.598Z,99113.62
2018-12-07T15:24:41.412Z,99107.22
2018-12-07T15:29:44.965Z,99088.44
2018-12-07T15:34:48.439Z,99075.38
2018-12-07T15:39:51.980Z,99058.28
2018-12-07T15:44:55.319Z,99040.77
2018-12-07T15:49:58.860Z,99016.81
2018-12-07T15:55:02.327Z,98997.66
2018-12-07T16:00:07.074Z,98993.02
2018-12-07T16:05:10.705Z,98987.15
2018-12-07T16:10:14.212Z,98996.60
2018-12-07T16:15:17.923Z,98992.92
2018-12-07T16:20:21.456Z,98987.73
2018-12-07T16:25:24.961Z,98986.30
2018-12-07T16:30:28.346Z,98979.16
2018-12-07T16:35:32.432Z,98970.77
2018-12-07T16:40:35.800Z,98957.36
2018-12-07T16:45:39.284Z,98961.72
2018-12-07T16:50:42.721Z,98958.70
2018-12-07T16:55:46.051Z,98959.17
2018-12-07T17:00:49.495Z,98952.84
2018-12-07T17:05:52.915Z,98946.97
2018-12-07T17:10:56.290Z,98940.79
2018-12-07T17:15:59.845Z,98937.43
2018-12-07T17:21:03.253Z,98929.36
2018-12-07T17:26:06.824Z,98915.64
2018-12-07T17:31:10.244Z,98906.94
2018-12-07T17:36:13.980Z,98875.07
2018-12-07T17:41:17.398Z,98883.31
2018-12-07T17:46:21.084Z,98884.66
2018-12-07T17:51:24.594Z,98879.53
2018-12-07T17:56:28.019Z,98879.20
2018-12-07T18:01:31.359Z,98868.82
2018-12-07T18:06:34.668Z,98863.61
2018-12-07T18:11:37.959Z,98861.06
2018-12-07T18:16:41.480Z,98858.70
2018-12-07T18:21:45.323Z,98847.15
2018-12-07T18:26:48.815Z,98827.63
2018-12-07T18:31:52.276Z,98825.98
2018-12-07T18:36:55.867Z,98822.34
2018-12-07T18:41:59.292Z,98812.20
2018-12-07T18:47:02.631Z,98805.16
2018-12-07T18:52:06.006Z,98795.97
2018-12-07T18:57:09.282Z,98790.23
2018-12-07T19:02:12.796Z,98789.53
2018-12-07T19:07:16.296Z,98792.27
2018-12-07T19:12:19.799Z,98787.03
2018-12-07T19:17:23.288Z,98788.24
2018-12-07T19:22:26.821Z,98771.94
2018-12-07T19:27:30.410Z,98769.08
2018-12-07T19:32:33.994Z,98754.46
2018-12-07T19:37:37.318Z,98754.64
2018-12-07T19:42:40.846Z,98743.56
2018-12-07T19:47:44.588Z,98732.80
2018-12-07T19:52:47.986Z,98737.00
2018-12-07T19:57:56.310Z,98720.16
2018-12-07T20:03:00.178Z,98710.56
2018-12-07T20:08:03.563Z,98696.80
2018-12-07T20:13:08.088Z,98687.22
2018-12-07T20:18:11.754Z,98683.84
2018-12-07T20:23:15.047Z,98693.89
2018-12-07T20:28:18.576Z,98683.13
2018-12-07T20:33:21.974Z,98678.40
2018-12-07T20:38:25.466Z,98677.73
2018-12-07T20:43:29.098Z,98662.27
2018-12-07T20:48:32.472Z,98656.56
2018-12-07T20:53:35.964Z,98655.58
2018-12-07T20:58:39.390Z,98645.34
2018-12-07T21:04:03.866Z,98647.66
2018-12-07T21:09:26.343Z,98648.17
2018-12-07T21:14:41.953Z,98637.92
2018-12-07T21:19:49.945Z,98638.59
2018-12-07T21:24:53.423Z,98619.61
2018-12-07T21:30:15.290Z,98631.36
2018-12-07T21:35:18.897Z,98637.91
2018-12-07T21:40:25.897Z,98617.09
2018-12-07T21:45:29.707Z,98628.87
2018-12-07T21:50:33.932Z,98628.17
2018-12-07T21:55:37.435Z,98626.66
2018-12-07T22:00:41.022Z,98625.98
2018-12-07T22:05:44.477Z,98606.52
2018-12-07T22:10:47.931Z,98613.41
2018-12-07T22:15:51.366Z,98624.98
2018-12-07T22:20:55.070Z,98632.53
2018-12-07T22:25:58.438Z,98628.34
2018-12-07T22:31:01.749Z,98629.01
2018-12-07T22:36:05.192Z,98629.84
2018-12-07T22:41:08.799Z,98641.93
2018-12-07T22:46:12.415Z,98640.75
2018-12-07T22:51:17.778Z,98660.52
2018-12-07T22:56:21.066Z,98667.91
2018-12-07T23:01:24.354Z,98668.95
2018-12-07T23:06:27.663Z,98685.22
2018-12-07T23:11:30.974Z,98681.70
2018-12-07T23:16:34.270Z,98682.17
2018-12-07T23:21:37.558Z,98688.72
2018-12-07T23:26:40.838Z,98700.33
2018-12-07T23:31:44.122Z,98711.73
2018-12-07T23:36:47.445Z,98749.83
2018-12-07T23:41:50.720Z,98788.05
2018-12-07T23:46:54.041Z,98823.62
2018-12-07T23:51:57.474Z,98865.28
2018-12-07T23:57:00.758Z,98890.53
